Melissa RD121's Hourly Summary for Saturday, May 12, 2018
Hour Temp
(f)
RH
(%)
Solar Rad.
(MJ/m2)
Rainfall
(in)
Wind
(mph)
5/12/2018 12:00 AM 73 69 0 0 6.17
5/12/2018 1:00 AM 73 73 0 0 9.15
5/12/2018 2:00 AM 73 74 0 0 9.99
5/12/2018 3:00 AM 72 78 0 0 8.76
5/12/2018 4:00 AM 71 81 0 0 9.12
5/12/2018 5:00 AM 72 80 0 0 9.9
5/12/2018 6:00 AM 71 82 0.02 0 6.27
5/12/2018 7:00 AM 71 84 0.25 0 4.22
5/12/2018 8:00 AM 73 80 0.51 0 6.69
5/12/2018 9:00 AM 75 72 1.6 0 8.11
5/12/2018 10:00 AM 77 66 2.4 0 8.78
5/12/2018 11:00 AM 79 57 2.51 0 8.77
5/12/2018 12:00 PM 81 54 2.38 0 8.02
5/12/2018 1:00 PM 83 44 3.07 0 8.31
5/12/2018 2:00 PM 84 44 3.08 0 7.89
5/12/2018 3:00 PM 85 42 2.72 0 7.84
5/12/2018 4:00 PM 85 42 1.56 0 7.91
5/12/2018 5:00 PM 85 45 1.74 0 7.51
5/12/2018 6:00 PM 84 45 0.92 0 6.04
5/12/2018 7:00 PM 82 48 0.3 0 4.93
5/12/2018 8:00 PM 79 55 0.01 0 3.48
5/12/2018 9:00 PM 77 61 0 0 3.94
5/12/2018 10:00 PM 75 66 0 0 3.6
5/12/2018 11:00 PM 74 70 0 0 2.86
Data Summary 77 63 23.07 0.00 7.01